Here is the Quick Look data you requested

The Data originates at the National Weather Service, and is made available here by the UAlbany Department of Atmospheric and Environmental Sciences

Surface Observations

KPHF 152054Z 22007KT 10SM CLR 34/22 A2990 RMK AO2 SLP124 T03440217 56019=
KPHF 152154Z 20009KT 10SM CLR 34/20 A2989 RMK AO2 SLP120 T03390200=
KPHF 152254Z 21008KT 10SM CLR 33/22 A2989 RMK AO2 SLP121 T03330217=
KPHF 152354Z 20007KT 10SM CLR 32/22 A2990 RMK AO2 SLP123 T03220217 10350 20322
 55001=
KPHF 160054Z 19008KT 10SM FEW003 31/23 A2990 RMK AO2 SLP125 T03110228=
KPHF 160154Z 19009KT 10SM CLR 31/23 A2990 RMK AO2 SLP125 T03060233=
KPHF 160254Z AUTO 19013KT 10SM CLR 30/24 A2990 RMK AO2 SLP124 T03000244 50001=
KPHF 160354Z AUTO 20012KT 10SM CLR 29/24 A2990 RMK AO2 SLP125 T02940244=
KPHF 160454Z AUTO 22010KT 10SM CLR 29/23 A2990 RMK AO2 SLP123 T02890233
 403500250=
KPHF 160554Z AUTO 21012KT 10SM CLR 28/23 A2989 RMK AO2 SLP120 T02780233 10322
 20278 58003=
KPHF 160654Z AUTO 22008KT 10SM CLR 27/23 A2988 RMK AO2 SLP118 T02720228=
KPHF 160754Z AUTO 23009KT 10SM CLR 27/22 A2989 RMK AO2 SLP122 T02670222=
KPHF 160854Z AUTO 23010KT 10SM CLR 26/22 A2991 RMK AO2 SLP127 T02610222 53007=
KPHF 160907Z AUTO 23010KT 10SM FEW003 26/22 A2991 RMK AO2 T02610222=
KPHF 160954Z AUTO 21007KT 10SM CLR 26/22 A2991 RMK AO2 SLP129 T02560222=
KPHF 161054Z AUTO 21007KT 10SM CLR 26/22 A2992 RMK AO2 SLP129 T02560222=
KPHF 161154Z AUTO 22008KT 10SM CLR 27/23 A2993 RMK AO2 SLP134 T02670228 10283
 20256 53006=
KPHF 161254Z 22010KT 10SM CLR 27/23 A2993 RMK AO2 SLP134 T02720228=
KPHF 161354Z 22008KT 10SM CLR 28/23 A2993 RMK AO2 SLP133 T02830228=
KPHF 161454Z 22010KT 10SM CLR 31/23 A2992 RMK AO2 SLP132 T03060233 58002=
KPHF 161554Z 20012KT 10SM CLR 31/24 A2991 RMK AO2 SLP129 T03110239=
KPHF 161654Z 21012KT 10SM CLR 32/24 A2991 RMK AO2 SLP126 T03220244=
KPHF 161754Z 21010KT 10SM CLR 33/24 A2990 RMK AO2 SLP124 T03330244 10333 20267
 56007=
KPHF 161854Z 22014KT 10SM CLR 34/24 A2988 RMK AO2 SLP117 T03390244=
KPHF 161954Z 20011KT 10SM CLR 34/24 A2986 RMK AO2 SLP111 T03440244=
KPHF 162054Z 21014KT 10SM CLR 34/24 A2986 RMK AO2 SLP111 T03440244 56013=

Decoded Surface Observations


The weather observed at NEWPORT NEWS, VA (KPHF) at 04:54 PM EDT was:
  The skies were clear.
  Temperature: 94F ( 34C)  Dewpoint:  71F ( 22C)  Relative Humidity:  48%
  Winds from the SW (220 degs) at  8 mph.
  Pressure: 1012.4 millibars.  Altimeter:29.90 inches of mercury.
  The prevailing visibility was 10 miles.

The weather observed at NEWPORT NEWS, VA (KPHF) at 05:54 PM EDT was:
  The skies were clear.
  Temperature: 93F ( 34C)  Dewpoint:  68F ( 20C)  Relative Humidity:  44%
  Winds from the SSW(200 degs) at 10 mph.
  Pressure: 1012.0 millibars.  Altimeter:29.89 inches of mercury.
  The prevailing visibility was 10 miles.

The weather observed at NEWPORT NEWS, VA (KPHF) at 06:54 PM EDT was:
  The skies were clear.
  Temperature: 91F ( 33C)  Dewpoint:  72F ( 22C)  Relative Humidity:  52%
  Winds from the SW (210 degs) at  9 mph.
  Pressure: 1012.1 millibars.  Altimeter:29.89 inches of mercury.
  The prevailing visibility was 10 miles.

The weather observed at NEWPORT NEWS, VA (KPHF) at 07:54 PM EDT was:
  The skies were clear.
  Temperature: 90F ( 32C)  Dewpoint:  71F ( 22C)  Relative Humidity:  54%
  Winds from the SSW(200 degs) at  8 mph.
  Pressure: 1012.3 millibars.  Altimeter:29.90 inches of mercury.
  The prevailing visibility was 10 miles.
  The maximum temperature in the past 6 hours was  95F.
  The minimum temperature in the past 6 hours was  90F.

The weather observed at NEWPORT NEWS, VA (KPHF) at 08:54 PM EDT was:
  The skies were mostly clear.
  Temperature: 88F ( 31C)  Dewpoint:  73F ( 23C)  Relative Humidity:  62%
  Winds from the S  (190 degs) at  9 mph.
  Pressure: 1012.5 millibars.  Altimeter:29.90 inches of mercury.
  The prevailing visibility was 10 miles.

The weather observed at NEWPORT NEWS, VA (KPHF) at 09:54 PM EDT was:
  The skies were clear.
  Temperature: 88F ( 31C)  Dewpoint:  73F ( 23C)  Relative Humidity:  62%
  Winds from the S  (190 degs) at 10 mph.
  Pressure: 1012.5 millibars.  Altimeter:29.90 inches of mercury.
  The prevailing visibility was 10 miles.

The weather observed at NEWPORT NEWS, VA (KPHF) at 10:54 PM EDT was:
  The skies were clear.
  Temperature: 86F ( 30C)  Dewpoint:  76F ( 24C)  Relative Humidity:  72%
  Winds from the S  (190 degs) at 15 mph.
  Pressure: 1012.4 millibars.  Altimeter:29.90 inches of mercury.
  The prevailing visibility was 10 miles.

The weather observed at NEWPORT NEWS, VA (KPHF) at 11:54 PM EDT was:
  The skies were clear.
  Temperature: 84F ( 29C)  Dewpoint:  75F ( 24C)  Relative Humidity:  74%
  Winds from the SSW(200 degs) at 14 mph.
  Pressure: 1012.5 millibars.  Altimeter:29.90 inches of mercury.
  The prevailing visibility was 10 miles.

The weather observed at NEWPORT NEWS, VA (KPHF) at 12:54 AM EDT was:
  The skies were clear.
  Temperature: 84F ( 29C)  Dewpoint:  74F ( 23C)  Relative Humidity:  72%
  Winds from the SW (220 degs) at 12 mph.
  Pressure: 1012.3 millibars.  Altimeter:29.90 inches of mercury.
  The prevailing visibility was 10 miles.

The weather observed at NEWPORT NEWS, VA (KPHF) at 01:54 AM EDT was:
  The skies were clear.
  Temperature: 82F ( 28C)  Dewpoint:  74F ( 23C)  Relative Humidity:  77%
  Winds from the SW (210 degs) at 14 mph.
  Pressure: 1012.0 millibars.  Altimeter:29.89 inches of mercury.
  The prevailing visibility was 10 miles.
  The maximum temperature in the past 6 hours was  90F.
  The minimum temperature in the past 6 hours was  82F.

The weather observed at NEWPORT NEWS, VA (KPHF) at 02:54 AM EDT was:
  The skies were clear.
  Temperature: 81F ( 27C)  Dewpoint:  73F ( 23C)  Relative Humidity:  79%
  Winds from the SW (220 degs) at  9 mph.
  Pressure: 1011.8 millibars.  Altimeter:29.88 inches of mercury.
  The prevailing visibility was 10 miles.

The weather observed at NEWPORT NEWS, VA (KPHF) at 03:54 AM EDT was:
  The skies were clear.
  Temperature: 81F ( 27C)  Dewpoint:  72F ( 22C)  Relative Humidity:  74%
  Winds from the SW (230 degs) at 10 mph.
  Pressure: 1012.2 millibars.  Altimeter:29.89 inches of mercury.
  The prevailing visibility was 10 miles.

The weather observed at NEWPORT NEWS, VA (KPHF) at 04:54 AM EDT was:
  The skies were clear.
  Temperature: 79F ( 26C)  Dewpoint:  72F ( 22C)  Relative Humidity:  79%
  Winds from the SW (230 degs) at 12 mph.
  Pressure: 1012.7 millibars.  Altimeter:29.91 inches of mercury.
  The prevailing visibility was 10 miles.

The weather observed at NEWPORT NEWS, VA (KPHF) at 05:07 AM EDT was:
  The skies were mostly clear.
  Temperature: 79F ( 26C)  Dewpoint:  72F ( 22C)  Relative Humidity:  79%
  Winds from the SW (230 degs) at 12 mph.
  Altimeter:29.91 inches of mercury.
  The prevailing visibility was 10 miles.

The weather observed at NEWPORT NEWS, VA (KPHF) at 05:54 AM EDT was:
  The skies were clear.
  Temperature: 79F ( 26C)  Dewpoint:  72F ( 22C)  Relative Humidity:  79%
  Winds from the SW (210 degs) at  8 mph.
  Pressure: 1012.9 millibars.  Altimeter:29.91 inches of mercury.
  The prevailing visibility was 10 miles.

The weather observed at NEWPORT NEWS, VA (KPHF) at 06:54 AM EDT was:
  The skies were clear.
  Temperature: 79F ( 26C)  Dewpoint:  72F ( 22C)  Relative Humidity:  79%
  Winds from the SW (210 degs) at  8 mph.
  Pressure: 1012.9 millibars.  Altimeter:29.92 inches of mercury.
  The prevailing visibility was 10 miles.

The weather observed at NEWPORT NEWS, VA (KPHF) at 07:54 AM EDT was:
  The skies were clear.
  Temperature: 80F ( 27C)  Dewpoint:  73F ( 23C)  Relative Humidity:  79%
  Winds from the SW (220 degs) at  9 mph.
  Pressure: 1013.4 millibars.  Altimeter:29.93 inches of mercury.
  The prevailing visibility was 10 miles.
  The maximum temperature in the past 6 hours was  83F.
  The minimum temperature in the past 6 hours was  78F.

The weather observed at NEWPORT NEWS, VA (KPHF) at 08:54 AM EDT was:
  The skies were clear.
  Temperature: 81F ( 27C)  Dewpoint:  73F ( 23C)  Relative Humidity:  79%
  Winds from the SW (220 degs) at 12 mph.
  Pressure: 1013.4 millibars.  Altimeter:29.93 inches of mercury.
  The prevailing visibility was 10 miles.

The weather observed at NEWPORT NEWS, VA (KPHF) at 09:54 AM EDT was:
  The skies were clear.
  Temperature: 82F ( 28C)  Dewpoint:  73F ( 23C)  Relative Humidity:  74%
  Winds from the SW (220 degs) at  9 mph.
  Pressure: 1013.3 millibars.  Altimeter:29.93 inches of mercury.
  The prevailing visibility was 10 miles.

The weather observed at NEWPORT NEWS, VA (KPHF) at 10:54 AM EDT was:
  The skies were clear.
  Temperature: 87F ( 31C)  Dewpoint:  74F ( 23C)  Relative Humidity:  65%
  Winds from the SW (220 degs) at 12 mph.
  Pressure: 1013.2 millibars.  Altimeter:29.92 inches of mercury.
  The prevailing visibility was 10 miles.

The weather observed at NEWPORT NEWS, VA (KPHF) at 11:54 AM EDT was:
  The skies were clear.
  Temperature: 88F ( 31C)  Dewpoint:  75F ( 24C)  Relative Humidity:  66%
  Winds from the SSW(200 degs) at 14 mph.
  Pressure: 1012.9 millibars.  Altimeter:29.91 inches of mercury.
  The prevailing visibility was 10 miles.

The weather observed at NEWPORT NEWS, VA (KPHF) at 12:54 PM EDT was:
  The skies were clear.
  Temperature: 90F ( 32C)  Dewpoint:  75F ( 24C)  Relative Humidity:  63%
  Winds from the SW (210 degs) at 14 mph.
  Pressure: 1012.6 millibars.  Altimeter:29.91 inches of mercury.
  The prevailing visibility was 10 miles.

The weather observed at NEWPORT NEWS, VA (KPHF) at 01:54 PM EDT was:
  The skies were clear.
  Temperature: 92F ( 33C)  Dewpoint:  76F ( 24C)  Relative Humidity:  60%
  Winds from the SW (210 degs) at 12 mph.
  Pressure: 1012.4 millibars.  Altimeter:29.90 inches of mercury.
  The prevailing visibility was 10 miles.
  The maximum temperature in the past 6 hours was  92F.
  The minimum temperature in the past 6 hours was  80F.

The weather observed at NEWPORT NEWS, VA (KPHF) at 02:54 PM EDT was:
  The skies were clear.
  Temperature: 93F ( 34C)  Dewpoint:  75F ( 24C)  Relative Humidity:  56%
  Winds from the SW (220 degs) at 16 mph.
  Pressure: 1011.7 millibars.  Altimeter:29.88 inches of mercury.
  The prevailing visibility was 10 miles.

The weather observed at NEWPORT NEWS, VA (KPHF) at 03:54 PM EDT was:
  The skies were clear.
  Temperature: 93F ( 34C)  Dewpoint:  75F ( 24C)  Relative Humidity:  56%
  Winds from the SSW(200 degs) at 13 mph.
  Pressure: 1011.1 millibars.  Altimeter:29.86 inches of mercury.
  The prevailing visibility was 10 miles.

The weather observed at NEWPORT NEWS, VA (KPHF) at 04:54 PM EDT was:
  The skies were clear.
  Temperature: 94F ( 34C)  Dewpoint:  76F ( 24C)  Relative Humidity:  56%
  Winds from the SW (210 degs) at 16 mph.
  Pressure: 1011.1 millibars.  Altimeter:29.86 inches of mercury.
  The prevailing visibility was 10 miles.

Short Range Forecast

Sorry no data found for phf
Make sure phf is a valid station
You might need to specify a nearby major city
Try Again

Zone Forecast

Sorry no data found for phf
Make sure phf is a valid station
You might need to specify a nearby major city
Try Again

State Forecast

Sorry no data found for phf
Make sure phf is a valid station
You might need to specify a nearby major city
Try Again

State Forecast Discussion

Sorry no data found for phf
Make sure phf is a valid station
You might need to specify a nearby major city
Try Again

GFS Short-Range Model Output Statistics (MOS) Forecast

KPHF   GFS MOS GUIDANCE    7/16/2024  1200 UTC
DT /JULY 16/JULY 17                /JULY 18                /JULY 19
HR   18 21 00 03 06 09 12 15 18 21 00 03 06 09 12 15 18 21 00 06 12
N/X                    80          96          78          87    69
TMP  97 98 91 86 84 82 84 90 94 93 88 84 82 79 79 81 84 81 77 72 75
DPT  74 73 73 74 74 74 75 75 75 74 74 74 73 73 72 73 72 72 71 69 69
CLD  CL FW FW SC SC FW BK SC SC BK OV OV OV OV OV OV OV OV OV OV OV
WDR  22 22 21 21 22 22 22 23 22 21 21 23 22 24 26 30 04 06 09 26 02
WSP  13 14 12 12 09 10 12 13 14 15 15 11 10 07 05 05 05 06 04 01 04
P06         0     3     8     8    43    40    26    33    51 36 17
P12                     8          43          56          60    41
Q06         0     0     0     0     1     1     0     1     3  1  0
Q12                     0           1           1           3     1
T06     24/21 16/10  4/ 1  8/ 2 42/21 28/ 7 16/ 0 19/ 0 28/ 9  8/ 0
T12           31/21        9/ 3       55/22       27/ 2    34/ 9
CIG   8  8  8  8  8  8  8  8  8  8  8  7  8  4  4  4  6  6  6  7  7
VIS   7  7  7  7  7  7  7  7  7  7  7  7  7  7  7  7  7  7  7  5  7
OBV   N  N  N  N  N  N  N  N  N  N  N  N  N  N  N  N  N  N  N BR  N

GFS Long-Range Model Output Statistics (MOS) Forecast

KPHF   GFSX MOS GUIDANCE   7/16/2024  1200 UTC
FHR  24  36| 48  60| 72  84| 96 108|120 132|144 156|168 180|192
     WED 17| THU 18| FRI 19| SAT 20| SUN 21| MON 22| TUE 23|WED CLIMO
N/X  80  96| 78  87| 69  86| 71  87| 72  90| 75  89| 73  91| 74 70 87
TMP  84  88| 79  77| 75  78| 77  79| 78  82| 79  81| 78  83| 79
DPT  75  74| 72  71| 69  68| 71  70| 73  72| 73  71| 71  72| 73
CLD  PC  OV| OV  OV| OV  PC| OV  OV| OV  OV| OV  OV| OV  PC| PC
WND  12  15| 15   6|  4   8|  5   8|  5   8|  6   7|  7   9|  9
P12   8  43| 56  60| 41  24| 16  41| 28  41| 42  39| 34  34| 26999999
P24      43|     79|     46|     41|     55|     58|     56|      999
Q12   0   1|  1   3|  1   0|  0   1|  0   2|  3   4|       |
Q24       0|      4|      1|      0|      2|      4|       |
T12  16  42| 31  37| 22  15|  7  25| 22  41| 28  36| 24  33| 21
T24        | 56    | 40    | 15    | 33    | 53    | 42    | 35

NGM Model Output Statistics (MOS) Forecast

Climatological Summary

Sorry no data found for phf
Make sure phf is a valid station
You might need to specify a nearby major city
Try Again

Watch and Warning Statment

Sorry no data found for phf
Make sure phf is a valid station
You might need to specify a nearby major city
or it could be THERE ARE NO WATCHES OR WARNINGS for phf
Try Again

Park/Ski Recreation Report/Forecast

Sorry no data found for phf
Make sure phf is a valid station
You might need to specify a nearby major city
Try Again